createdAt,value
2023-01-21T00:01:02.302Z,14.02
2023-01-21T00:03:29.438Z,16.20
2023-01-21T00:05:58.512Z,20.70
2023-01-21T00:08:26.734Z,11.95
2023-01-21T00:10:54.035Z,14.05
2023-01-21T00:13:21.425Z,14.27
2023-01-21T00:15:48.749Z,13.05
2023-01-21T00:18:15.976Z,13.77
2023-01-21T00:20:43.204Z,12.80
2023-01-21T00:23:11.102Z,16.27
2023-01-21T00:25:38.124Z,12.50
2023-01-21T00:28:05.377Z,12.50
2023-01-21T00:30:32.598Z,11.02
2023-01-21T00:32:59.843Z,12.95
2023-01-21T00:35:26.980Z,12.00
2023-01-21T00:37:54.455Z,11.85
2023-01-21T00:40:21.911Z,12.70
2023-01-21T00:42:49.097Z,15.85
2023-01-21T00:45:16.460Z,11.27
2023-01-21T00:47:43.808Z,12.00
2023-01-21T00:50:11.571Z,12.07
2023-01-21T00:52:39.089Z,11.52
2023-01-21T00:55:06.761Z,10.57
2023-01-21T00:57:33.920Z,10.10
2023-01-21T01:00:01.140Z,12.82
2023-01-21T01:02:28.435Z,11.20
2023-01-21T01:04:55.679Z,13.57
2023-01-21T01:07:22.839Z,11.82
2023-01-21T01:09:50.079Z,11.95
2023-01-21T01:12:17.300Z,11.75
2023-01-21T01:14:44.464Z,11.60
2023-01-21T01:17:11.734Z,11.73
2023-01-21T01:19:38.917Z,11.70
2023-01-21T01:22:06.165Z,13.35
2023-01-21T01:24:33.189Z,20.17
2023-01-21T01:27:00.213Z,12.82
2023-01-21T01:29:28.694Z,11.35
2023-01-21T01:31:55.885Z,11.88
2023-01-21T01:34:23.110Z,10.05
2023-01-21T01:36:50.423Z,10.63
2023-01-21T01:39:17.547Z,10.77
2023-01-21T01:41:44.806Z,12.13
2023-01-21T01:44:49.109Z,12.20
2023-01-21T01:47:16.612Z,10.15
2023-01-21T01:49:44.146Z,10.95
2023-01-21T01:52:13.032Z,11.60
2023-01-21T01:54:44.304Z,12.70
2023-01-21T01:57:16.112Z,12.73
2023-01-21T01:59:44.433Z,10.82
2023-01-21T02:02:18.293Z,12.63
2023-01-21T02:04:53.337Z,10.40
2023-01-21T02:07:24.375Z,13.38
2023-01-21T02:09:53.478Z,13.27
2023-01-21T02:12:21.260Z,17.73
2023-01-21T02:14:49.384Z,12.13
2023-01-21T02:17:17.553Z,10.57
2023-01-21T02:19:53.477Z,13.60
2023-01-21T02:22:35.615Z,10.98
2023-01-21T02:25:45.479Z,13.80
2023-01-21T02:28:31.010Z,15.55
2023-01-21T02:31:29.437Z,12.48
2023-01-21T02:34:20.856Z,12.68
2023-01-21T02:37:12.144Z,13.13
2023-01-21T02:40:09.305Z,11.50
2023-01-21T02:42:47.954Z,12.95
2023-01-21T02:45:22.717Z,12.75
2023-01-21T02:48:13.225Z,11.10
2023-01-21T02:50:50.289Z,13.88
2023-01-21T02:53:27.481Z,13.00
2023-01-21T02:55:55.196Z,10.80
2023-01-21T02:58:31.336Z,11.20
2023-01-21T03:01:08.341Z,10.52
2023-01-21T03:03:41.598Z,11.30
2023-01-21T03:06:30.616Z,9.57
2023-01-21T03:09:13.941Z,15.10
2023-01-21T03:11:45.802Z,9.95
2023-01-21T03:15:10.653Z,10.13
2023-01-21T03:17:48.320Z,11.88
2023-01-21T03:20:22.748Z,10.80
2023-01-21T03:22:57.009Z,14.30
2023-01-21T03:25:25.879Z,11.77
2023-01-21T03:27:54.509Z,11.70
2023-01-21T03:30:24.466Z,9.93
2023-01-21T03:32:52.653Z,9.75
2023-01-21T03:35:29.048Z,10.30
2023-01-21T03:38:01.391Z,11.93
2023-01-21T03:40:38.452Z,11.27
2023-01-21T03:43:05.737Z,11.63
2023-01-21T03:45:44.380Z,16.63
2023-01-21T03:48:26.980Z,9.32
2023-01-21T03:51:00.436Z,12.73
2023-01-21T03:53:28.407Z,9.25
2023-01-21T03:55:55.440Z,10.35
2023-01-21T03:58:22.574Z,11.02
2023-01-21T04:00:49.820Z,11.38
2023-01-21T04:03:17.104Z,9.55
2023-01-21T04:05:44.195Z,10.52
2023-01-21T04:08:11.495Z,11.60
2023-01-21T04:10:38.599Z,9.20
2023-01-21T04:13:05.626Z,8.25
2023-01-21T04:15:32.803Z,7.80
2023-01-21T04:18:00.499Z,11.52
2023-01-21T04:20:27.597Z,9.38
2023-01-21T04:22:54.643Z,9.23
2023-01-21T04:25:21.751Z,13.07
2023-01-21T04:27:48.939Z,7.82
2023-01-21T04:30:16.532Z,9.88
2023-01-21T04:32:43.678Z,9.63
2023-01-21T04:35:11.009Z,10.95
2023-01-21T04:37:38.220Z,10.98
2023-01-21T04:40:05.961Z,12.40
2023-01-21T04:42:33.103Z,10.73
2023-01-21T04:45:00.474Z,10.63
2023-01-21T04:47:27.622Z,11.38
2023-01-21T04:49:54.932Z,12.25
2023-01-21T04:52:24.176Z,12.82
2023-01-21T04:54:51.255Z,12.50
2023-01-21T04:57:18.716Z,11.25
2023-01-21T04:59:46.010Z,12.48
2023-01-21T05:02:13.315Z,8.32
2023-01-21T05:04:40.429Z,7.82
2023-01-21T05:07:07.753Z,10.70
2023-01-21T05:09:35.032Z,9.85
2023-01-21T05:12:02.344Z,14.20
2023-01-21T05:14:29.890Z,12.23
2023-01-21T05:16:57.053Z,9.18
2023-01-21T05:19:24.283Z,10.05
2023-01-21T05:21:51.514Z,13.15
2023-01-21T05:24:19.010Z,10.65
2023-01-21T05:26:46.238Z,11.57
2023-01-21T05:29:13.424Z,13.27
2023-01-21T05:31:40.637Z,13.15
2023-01-21T05:34:07.908Z,14.70
2023-01-21T05:36:35.468Z,8.77
2023-01-21T05:39:03.111Z,13.25
2023-01-21T05:41:30.462Z,12.27
2023-01-21T05:43:57.664Z,11.70
2023-01-21T05:46:24.972Z,11.85
2023-01-21T05:48:52.086Z,11.00
2023-01-21T05:51:19.253Z,13.48
2023-01-21T05:53:46.512Z,14.25
2023-01-21T05:56:13.645Z,11.10
2023-01-21T05:58:40.837Z,11.73
2023-01-21T06:01:07.939Z,10.98
2023-01-21T06:03:35.969Z,13.52
2023-01-21T06:06:03.202Z,11.93
2023-01-21T06:08:30.347Z,12.15
2023-01-21T06:10:57.699Z,15.40
2023-01-21T06:13:25.322Z,13.52
2023-01-21T06:15:58.410Z,15.27
2023-01-21T06:18:25.866Z,15.63
2023-01-21T06:20:53.414Z,14.98
2023-01-21T06:23:20.543Z,13.27
2023-01-21T06:25:47.918Z,16.17
2023-01-21T06:28:15.528Z,10.98
2023-01-21T06:30:42.827Z,11.48
2023-01-21T06:33:10.047Z,16.70
2023-01-21T06:35:37.437Z,15.30
2023-01-21T06:38:04.693Z,15.45
2023-01-21T06:40:31.947Z,14.60
2023-01-21T06:42:59.166Z,15.70
2023-01-21T06:45:26.584Z,14.63
2023-01-21T06:47:53.739Z,15.30
2023-01-21T06:50:20.900Z,14.68
2023-01-21T06:52:49.116Z,12.80
2023-01-21T06:55:17.428Z,14.05
2023-01-21T06:57:44.908Z,17.25
2023-01-21T07:00:13.128Z,19.60
2023-01-21T07:02:40.485Z,19.85
2023-01-21T07:05:08.220Z,17.88
2023-01-21T07:07:35.681Z,18.13
2023-01-21T07:10:03.460Z,16.88
2023-01-21T07:12:30.761Z,14.00
2023-01-21T07:15:00.869Z,18.48
2023-01-21T07:17:28.052Z,16.50
2023-01-21T07:19:55.192Z,16.65
2023-01-21T07:22:22.394Z,14.20
2023-01-21T07:24:49.674Z,13.70
2023-01-21T07:27:17.081Z,15.90
2023-01-21T07:29:44.391Z,16.35
2023-01-21T07:32:11.563Z,15.40
2023-01-21T07:34:38.808Z,14.65
2023-01-21T07:37:06.062Z,17.70
2023-01-21T07:39:33.363Z,15.85
2023-01-21T07:42:00.493Z,18.17
2023-01-21T07:44:28.850Z,15.60
2023-01-21T07:46:56.206Z,17.17
2023-01-21T07:49:23.635Z,16.23
2023-01-21T07:51:50.908Z,19.08
2023-01-21T07:54:18.121Z,20.20
2023-01-21T07:56:45.362Z,18.77
2023-01-21T07:59:13.513Z,21.58
2023-01-21T08:01:40.948Z,16.20
2023-01-21T08:04:10.074Z,18.02
2023-01-21T08:06:38.281Z,17.92
2023-01-21T08:09:05.801Z,20.63
2023-01-21T08:11:33.298Z,17.70
2023-01-21T08:14:00.550Z,21.23
2023-01-21T08:16:28.174Z,19.52
2023-01-21T08:18:55.494Z,21.52
2023-01-21T08:21:22.792Z,21.80
2023-01-21T08:23:49.911Z,22.88
2023-01-21T08:26:17.725Z,20.85
2023-01-21T08:28:45.159Z,23.20
2023-01-21T08:31:14.089Z,18.88
2023-01-21T08:33:42.414Z,19.67
2023-01-21T08:36:10.093Z,26.30
2023-01-21T08:38:38.541Z,23.30
2023-01-21T08:41:06.020Z,21.20
2023-01-21T08:43:33.521Z,21.85
2023-01-21T08:46:01.902Z,21.25
2023-01-21T08:48:30.602Z,20.77
2023-01-21T08:51:01.334Z,20.85
2023-01-21T08:53:28.775Z,22.45
2023-01-21T08:56:01.227Z,24.58
2023-01-21T08:58:29.943Z,22.48
2023-01-21T09:00:57.573Z,23.38
2023-01-21T09:03:25.360Z,27.02
2023-01-21T09:05:53.294Z,22.52
2023-01-21T09:08:20.687Z,24.48
2023-01-21T09:11:03.137Z,21.90
2023-01-21T09:13:32.525Z,23.77
2023-01-21T09:16:00.305Z,24.48
2023-01-21T09:18:27.991Z,21.42
2023-01-21T09:20:59.876Z,20.42
2023-01-21T09:23:27.952Z,18.55
2023-01-21T09:26:10.517Z,24.98
2023-01-21T09:28:39.094Z,20.33
2023-01-21T09:31:12.174Z,19.77
2023-01-21T09:33:41.983Z,17.17
2023-01-21T09:36:12.933Z,18.95
2023-01-21T09:38:45.749Z,19.90
2023-01-21T09:41:22.108Z,17.13
2023-01-21T09:44:28.287Z,23.63
2023-01-21T09:47:05.053Z,18.50
2023-01-21T09:49:43.026Z,20.13
2023-01-21T09:52:37.909Z,18.80
2023-01-21T09:55:07.698Z,21.27
2023-01-21T09:57:46.744Z,20.13
2023-01-21T10:00:23.885Z,21.20
2023-01-21T10:03:06.011Z,21.35
2023-01-21T10:06:01.098Z,22.05
2023-01-21T10:09:01.713Z,21.98
2023-01-21T10:12:07.493Z,20.42
2023-01-21T10:14:49.640Z,22.92
2023-01-21T10:17:38.540Z,28.33
2023-01-21T10:20:18.568Z,21.45
2023-01-21T10:23:03.490Z,20.85
2023-01-21T10:25:33.098Z,22.80
2023-01-21T10:28:05.745Z,21.77
2023-01-21T10:30:54.705Z,20.77
2023-01-21T10:33:27.753Z,17.05
2023-01-21T10:36:18.818Z,19.67
2023-01-21T10:39:00.031Z,20.33
2023-01-21T10:41:33.448Z,17.52
2023-01-21T10:44:04.390Z,17.27
2023-01-21T10:46:41.778Z,19.65
2023-01-21T10:49:24.362Z,15.55
2023-01-21T10:52:16.204Z,17.92
2023-01-21T10:54:51.614Z,19.20
2023-01-21T10:57:46.510Z,19.00
2023-01-21T11:00:27.180Z,22.23
2023-01-21T11:02:59.085Z,17.08
2023-01-21T11:05:27.357Z,16.08
2023-01-21T11:07:55.524Z,18.65
2023-01-21T11:10:27.547Z,37.40
2023-01-21T11:12:56.049Z,19.25
2023-01-21T11:15:24.484Z,18.55
2023-01-21T11:17:59.886Z,13.88
2023-01-21T11:20:39.945Z,16.33
2023-01-21T11:23:24.726Z,13.93
2023-01-21T11:25:51.889Z,16.00
2023-01-21T11:28:32.519Z,13.85
2023-01-21T11:31:26.661Z,16.10
2023-01-21T11:33:55.219Z,14.98
2023-01-21T11:36:22.576Z,12.73
2023-01-21T11:39:13.351Z,18.17
2023-01-21T11:41:49.011Z,14.38
2023-01-21T11:44:21.267Z,12.07
2023-01-21T11:46:48.799Z,15.90
2023-01-21T11:49:15.942Z,18.65
2023-01-21T11:51:46.330Z,13.55
2023-01-21T11:54:22.326Z,14.48
2023-01-21T11:56:56.842Z,33.33
2023-01-21T11:59:41.396Z,14.68
2023-01-21T12:05:09.716Z,13.77
2023-01-21T12:07:41.030Z,18.13
2023-01-21T12:10:43.212Z,13.95
2023-01-21T12:13:10.358Z,12.05
2023-01-21T12:16:14.778Z,14.25
2023-01-21T12:19:07.110Z,12.05
2023-01-21T12:22:11.712Z,11.32
2023-01-21T12:24:50.941Z,14.18
2023-01-21T12:27:36.697Z,14.45
2023-01-21T12:30:30.937Z,14.80
2023-01-21T12:33:01.006Z,14.25
2023-01-21T12:35:35.874Z,17.05
2023-01-21T12:38:07.999Z,16.73
2023-01-21T12:40:41.203Z,16.42
2023-01-21T12:43:25.609Z,8.20
2023-01-21T12:48:30.811Z,9.80
2023-01-21T12:51:05.248Z,9.10
2023-01-21T12:53:32.469Z,8.52
2023-01-21T12:56:11.570Z,9.27
2023-01-21T12:58:49.518Z,9.00
2023-01-21T13:01:35.111Z,11.55
2023-01-21T13:04:36.288Z,7.57
2023-01-21T13:07:15.156Z,9.35
2023-01-21T13:09:55.391Z,8.98
2023-01-21T13:12:26.252Z,9.77
2023-01-21T13:15:04.424Z,10.02
2023-01-21T13:17:38.540Z,12.73
2023-01-21T13:22:49.930Z,10.55
2023-01-21T13:25:41.565Z,9.88
2023-01-21T13:28:14.844Z,11.02
2023-01-21T13:30:48.256Z,11.70
2023-01-21T13:33:44.954Z,12.82
2023-01-21T13:36:34.342Z,10.20
2023-01-21T13:39:21.360Z,12.05
2023-01-21T13:42:20.378Z,10.93
2023-01-21T13:45:13.508Z,13.38
2023-01-21T13:47:43.658Z,11.93
2023-01-21T13:50:24.850Z,10.93
2023-01-21T13:53:20.821Z,12.25
2023-01-21T13:56:09.429Z,11.77
2023-01-21T13:58:48.883Z,10.82
2023-01-21T14:01:25.047Z,9.15
2023-01-21T14:03:56.717Z,13.07
2023-01-21T14:06:40.017Z,13.13
2023-01-21T14:09:22.817Z,15.77
2023-01-21T14:11:56.817Z,12.07
2023-01-21T14:14:31.033Z,16.90
2023-01-21T14:17:07.866Z,12.82
2023-01-21T14:19:34.876Z,13.40
2023-01-21T14:22:36.040Z,15.07
2023-01-21T14:25:03.281Z,15.52
2023-01-21T14:28:17.620Z,15.02
2023-01-21T14:31:10.810Z,13.05
2023-01-21T14:33:48.870Z,14.15
2023-01-21T14:36:21.176Z,12.82
2023-01-21T14:39:24.799Z,16.42
2023-01-21T14:42:13.027Z,14.88
2023-01-21T14:44:59.563Z,14.02
2023-01-21T14:47:29.564Z,11.68
2023-01-21T14:49:59.097Z,15.40
2023-01-21T14:52:46.779Z,14.18
2023-01-21T14:55:32.101Z,14.70
2023-01-21T14:58:02.037Z,14.35
2023-01-21T15:00:33.949Z,13.43
2023-01-21T15:03:07.139Z,15.93
2023-01-21T15:05:37.003Z,16.83
2023-01-21T15:08:07.407Z,17.58
2023-01-21T15:10:38.151Z,18.95
2023-01-21T15:13:35.003Z,18.17
2023-01-21T15:16:14.083Z,16.60
2023-01-21T15:18:45.785Z,21.70
2023-01-21T15:21:34.894Z,22.08
2023-01-21T15:24:21.411Z,18.27
2023-01-21T15:27:12.987Z,19.48
2023-01-21T15:30:03.338Z,18.85
2023-01-21T15:32:48.308Z,21.08
2023-01-21T15:35:34.600Z,20.02
2023-01-21T15:38:15.817Z,14.43
2023-01-21T15:40:52.663Z,19.20
2023-01-21T15:43:39.951Z,16.83
2023-01-21T15:46:30.400Z,19.88
2023-01-21T15:49:34.654Z,15.57
2023-01-21T15:52:20.622Z,14.67
2023-01-21T15:55:09.293Z,16.08
2023-01-21T15:57:54.467Z,15.00
2023-01-21T16:00:52.062Z,16.60
2023-01-21T16:03:19.358Z,17.95
2023-01-21T16:06:02.546Z,15.00
2023-01-21T16:09:05.746Z,19.63
2023-01-21T16:11:44.845Z,15.00
2023-01-21T16:14:22.346Z,12.60
2023-01-21T16:17:18.418Z,13.38
2023-01-21T16:19:50.391Z,12.50
2023-01-21T16:22:27.285Z,11.93
2023-01-21T16:25:03.241Z,13.60
2023-01-21T16:27:32.307Z,16.70
2023-01-21T16:30:26.866Z,15.25
2023-01-21T16:33:26.602Z,13.18
2023-01-21T16:35:57.244Z,13.57
2023-01-21T16:38:26.719Z,12.07
2023-01-21T16:41:21.654Z,15.23
2023-01-21T16:44:00.661Z,18.67
2023-01-21T16:46:40.588Z,12.82
2023-01-21T16:49:16.876Z,17.60
2023-01-21T16:52:03.243Z,18.95
2023-01-21T16:54:32.905Z,15.55
2023-01-21T16:57:01.560Z,16.80
2023-01-21T16:59:40.143Z,15.15
2023-01-21T17:02:17.368Z,15.20
2023-01-21T17:04:45.303Z,15.98
2023-01-21T17:07:21.657Z,14.68
2023-01-21T17:09:57.226Z,16.40
2023-01-21T17:12:27.114Z,12.30
2023-01-21T17:15:16.555Z,13.75
2023-01-21T17:17:44.107Z,16.45
2023-01-21T17:20:33.458Z,14.48
2023-01-21T17:23:23.777Z,14.20
2023-01-21T17:25:59.697Z,14.25
2023-01-21T17:28:39.827Z,15.32
2023-01-21T17:31:16.165Z,14.50
2023-01-21T17:33:44.440Z,15.18
2023-01-21T17:36:16.247Z,13.20
2023-01-21T17:38:47.091Z,15.05
2023-01-21T17:41:32.105Z,14.38
2023-01-21T17:44:00.727Z,13.70
2023-01-21T17:46:31.389Z,13.35
2023-01-21T17:49:07.652Z,16.38
2023-01-21T17:51:35.878Z,16.08
2023-01-21T17:54:05.947Z,14.63
2023-01-21T17:56:49.713Z,15.05
2023-01-21T17:59:28.292Z,18.77
2023-01-21T18:01:56.363Z,14.10
2023-01-21T18:04:23.908Z,16.30
2023-01-21T18:06:53.223Z,13.65
2023-01-21T18:09:22.624Z,17.75
2023-01-21T18:11:51.804Z,14.77
2023-01-21T18:14:24.197Z,16.10
2023-01-21T18:16:53.719Z,16.10
2023-01-21T18:19:36.449Z,14.85
2023-01-21T18:22:05.515Z,15.98
2023-01-21T18:24:33.291Z,13.35
2023-01-21T18:27:02.283Z,19.63
2023-01-21T18:29:30.837Z,15.13
2023-01-21T18:31:59.117Z,19.20
2023-01-21T18:34:26.399Z,21.00
2023-01-21T18:36:54.040Z,21.63
2023-01-21T18:39:21.661Z,20.73
2023-01-21T18:41:50.981Z,19.25
2023-01-21T18:44:18.219Z,19.17
2023-01-21T18:46:45.411Z,17.88
2023-01-21T18:49:20.555Z,17.35
2023-01-21T18:51:48.121Z,18.17
2023-01-21T18:54:16.773Z,16.40
2023-01-21T18:56:44.642Z,21.45
2023-01-21T18:59:14.533Z,17.98
2023-01-21T19:01:42.954Z,18.42
2023-01-21T19:04:14.454Z,15.52
2023-01-21T19:06:50.569Z,17.40
2023-01-21T19:09:17.776Z,18.70
2023-01-21T19:11:44.977Z,16.67
2023-01-21T19:14:12.369Z,17.08
2023-01-21T19:16:40.844Z,20.38
2023-01-21T19:19:21.548Z,17.65
2023-01-21T19:21:48.633Z,16.15
2023-01-21T19:24:15.713Z,16.20
2023-01-21T19:26:42.972Z,16.90
2023-01-21T19:29:17.865Z,20.25
2023-01-21T19:31:45.003Z,17.70
2023-01-21T19:34:12.105Z,19.38
2023-01-21T19:36:40.271Z,19.85
2023-01-21T19:39:18.263Z,18.45
2023-01-21T19:41:45.569Z,20.83
2023-01-21T19:44:12.634Z,19.20
2023-01-21T19:46:39.938Z,19.65
2023-01-21T19:49:16.270Z,18.23
2023-01-21T19:51:44.574Z,19.35
2023-01-21T19:54:12.016Z,21.08
2023-01-21T19:56:39.011Z,20.80
2023-01-21T19:59:06.146Z,23.15
2023-01-21T20:01:33.302Z,18.65
2023-01-21T20:04:01.798Z,27.13
2023-01-21T20:06:34.589Z,19.48
2023-01-21T20:09:01.928Z,23.05
2023-01-21T20:11:29.065Z,23.85
2023-01-21T20:13:56.239Z,29.35
2023-01-21T20:16:24.275Z,27.83
2023-01-21T20:18:58.158Z,24.95
2023-01-21T20:21:25.576Z,18.38
2023-01-21T20:23:53.649Z,22.73
2023-01-21T20:26:27.032Z,18.63
2023-01-21T20:28:54.778Z,32.47
2023-01-21T20:31:23.090Z,32.80
2023-01-21T20:33:50.226Z,24.83
2023-01-21T20:36:21.306Z,23.33
2023-01-21T20:38:48.447Z,21.25
2023-01-21T20:41:15.972Z,22.55
2023-01-21T20:43:44.396Z,23.60
2023-01-21T20:46:18.519Z,23.92
2023-01-21T20:51:12.941Z,21.65
2023-01-21T20:53:40.122Z,26.10
2023-01-21T20:56:24.481Z,23.27
2023-01-21T20:58:51.752Z,27.58
2023-01-21T21:01:24.293Z,28.95
2023-01-21T21:03:51.852Z,25.73
2023-01-21T21:06:21.864Z,25.88
2023-01-21T21:08:49.841Z,33.72
2023-01-21T21:11:18.918Z,26.48
2023-01-21T21:13:48.543Z,27.20
2023-01-21T21:16:20.725Z,28.25
2023-01-21T21:18:49.109Z,25.55
2023-01-21T21:21:17.774Z,30.65
2023-01-21T21:23:48.130Z,32.95
2023-01-21T21:26:24.168Z,26.08
2023-01-21T21:28:55.169Z,27.42
2023-01-21T21:31:23.251Z,30.65
2023-01-21T21:33:51.840Z,32.95
2023-01-21T21:36:21.990Z,27.33
2023-01-21T21:38:52.368Z,32.78
2023-01-21T21:41:40.573Z,29.48
2023-01-21T21:44:09.137Z,29.00
2023-01-21T21:46:58.688Z,27.83
2023-01-21T21:49:26.265Z,29.70
2023-01-21T21:51:53.616Z,28.90
2023-01-21T21:54:21.454Z,32.38
2023-01-21T21:56:50.590Z,29.48
2023-01-21T21:59:18.279Z,28.88
2023-01-21T22:01:45.295Z,27.50
2023-01-21T22:04:12.893Z,31.15
2023-01-21T22:06:40.052Z,29.63
2023-01-21T22:09:07.704Z,27.58
2023-01-21T22:11:34.831Z,29.33
2023-01-21T22:14:04.542Z,33.63
2023-01-21T22:16:35.534Z,29.30
2023-01-21T22:19:06.422Z,31.42
2023-01-21T22:21:34.585Z,31.90
2023-01-21T22:24:03.554Z,32.65
2023-01-21T22:26:30.965Z,28.85
2023-01-21T22:28:58.056Z,29.23
2023-01-21T22:31:27.642Z,33.42
2023-01-21T22:33:55.532Z,46.70
2023-01-21T22:36:24.923Z,32.90
2023-01-21T22:38:52.809Z,28.73
2023-01-21T22:41:22.718Z,29.70
2023-01-21T22:43:51.121Z,24.70
2023-01-21T22:46:21.080Z,32.55
2023-01-21T22:48:48.317Z,27.60
2023-01-21T22:51:17.582Z,26.20
2023-01-21T22:53:45.137Z,23.02
2023-01-21T22:56:15.680Z,27.02
2023-01-21T22:58:43.726Z,26.27
2023-01-21T23:01:26.635Z,24.52
2023-01-21T23:03:54.238Z,23.05
2023-01-21T23:06:23.009Z,29.38
2023-01-21T23:08:54.199Z,23.40
2023-01-21T23:11:21.668Z,23.63
2023-01-21T23:13:53.423Z,23.95
2023-01-21T23:16:21.291Z,25.58
2023-01-21T23:18:49.171Z,24.73
2023-01-21T23:21:21.395Z,22.23
2023-01-21T23:23:49.389Z,19.05
2023-01-21T23:26:19.380Z,20.70
2023-01-21T23:28:47.853Z,23.85
2023-01-21T23:31:17.360Z,20.13
2023-01-21T23:33:44.970Z,22.27
2023-01-21T23:36:15.433Z,25.02
2023-01-21T23:38:43.814Z,24.27
2023-01-21T23:41:13.572Z,23.73
2023-01-21T23:43:41.128Z,21.40
2023-01-21T23:46:19.805Z,21.42
2023-01-21T23:48:47.205Z,20.17
2023-01-21T23:51:16.018Z,23.23
2023-01-21T23:53:43.522Z,25.45
2023-01-21T23:56:16.239Z,21.05
2023-01-21T23:58:43.317Z,22.30
